createdAt,value
2023-05-14T00:00:15.400Z,13.20
2023-05-14T00:03:18.531Z,13.10
2023-05-14T00:06:21.516Z,13.10
2023-05-14T00:09:26.185Z,13.10
2023-05-14T00:12:30.053Z,13.10
2023-05-14T00:15:34.366Z,13.10
2023-05-14T00:18:37.763Z,13.10
2023-05-14T00:21:40.952Z,13.10
2023-05-14T00:24:47.987Z,13.00
2023-05-14T00:27:51.026Z,13.00
2023-05-14T00:30:55.266Z,13.00
2023-05-14T00:33:58.303Z,13.00
2023-05-14T00:37:01.340Z,12.90
2023-05-14T00:40:08.486Z,12.90
2023-05-14T00:43:11.554Z,12.90
2023-05-14T00:46:15.713Z,12.90
2023-05-14T00:49:19.302Z,12.90
2023-05-14T00:52:22.550Z,12.90
2023-05-14T00:55:27.695Z,12.80
2023-05-14T00:58:32.944Z,12.90
2023-05-14T01:01:36.520Z,12.90
2023-05-14T01:04:39.974Z,12.90
2023-05-14T01:07:54.088Z,12.90
2023-05-14T01:11:05.070Z,12.90
2023-05-14T01:14:22.743Z,12.90
2023-05-14T01:17:29.897Z,12.90
2023-05-14T01:20:32.919Z,12.80
2023-05-14T01:23:37.709Z,12.80
2023-05-14T01:26:40.933Z,12.90
2023-05-14T01:29:49.011Z,12.80
2023-05-14T01:32:56.627Z,12.80
2023-05-14T01:36:00.041Z,12.80
2023-05-14T01:39:05.240Z,12.80
2023-05-14T01:42:08.953Z,12.80
2023-05-14T01:45:12.493Z,12.70
2023-05-14T01:48:16.502Z,12.70
2023-05-14T01:51:19.624Z,12.70
2023-05-14T01:54:24.317Z,12.70
2023-05-14T01:57:27.332Z,12.70
2023-05-14T02:00:30.551Z,12.70
2023-05-14T02:03:33.546Z,12.70
2023-05-14T02:06:36.670Z,12.80
2023-05-14T02:09:41.238Z,12.80
2023-05-14T02:12:44.297Z,12.90
2023-05-14T02:15:47.316Z,13.10
2023-05-14T02:18:50.373Z,13.10
2023-05-14T02:21:53.495Z,13.20
2023-05-14T02:24:57.827Z,13.30
2023-05-14T02:28:02.293Z,13.30
2023-05-14T02:31:05.384Z,13.30
2023-05-14T02:34:08.465Z,13.30
2023-05-14T02:37:11.488Z,13.40
2023-05-14T02:40:18.757Z,13.40
2023-05-14T02:43:21.761Z,13.40
2023-05-14T02:46:24.941Z,13.40
2023-05-14T02:49:28.079Z,13.40
2023-05-14T02:52:31.076Z,13.40
2023-05-14T02:55:36.190Z,13.50
2023-05-14T02:58:39.317Z,13.40
2023-05-14T03:01:42.420Z,13.50
2023-05-14T03:04:46.755Z,13.40
2023-05-14T03:07:51.242Z,13.50
2023-05-14T03:10:55.870Z,13.50
2023-05-14T03:13:58.830Z,13.50
2023-05-14T03:17:04.067Z,13.50
2023-05-14T03:20:08.305Z,13.40
2023-05-14T03:23:11.326Z,13.50
2023-05-14T03:26:15.717Z,13.50
2023-05-14T03:29:18.965Z,13.50
2023-05-14T03:32:22.336Z,13.50
2023-05-14T03:35:25.587Z,13.50
2023-05-14T03:38:28.779Z,13.50
2023-05-14T03:41:33.590Z,13.50
2023-05-14T03:44:36.898Z,13.60
2023-05-14T03:47:39.984Z,13.60
2023-05-14T03:50:43.243Z,13.70
2023-05-14T03:53:46.337Z,13.70
2023-05-14T03:56:50.702Z,13.70
2023-05-14T03:59:53.791Z,13.70
2023-05-14T04:02:56.991Z,13.70
2023-05-14T04:06:00.195Z,13.70
2023-05-14T04:09:03.400Z,13.70
2023-05-14T04:12:09.491Z,13.70
2023-05-14T04:15:13.862Z,13.70
2023-05-14T04:18:17.185Z,13.70
2023-05-14T04:21:20.193Z,13.60
2023-05-14T04:24:23.179Z,13.60
2023-05-14T04:27:27.900Z,13.60
2023-05-14T04:30:31.106Z,13.60
2023-05-14T04:33:34.194Z,13.60
2023-05-14T04:36:37.236Z,13.60
2023-05-14T04:39:40.637Z,13.50
2023-05-14T04:42:45.096Z,13.50
2023-05-14T04:45:48.142Z,13.50
2023-05-14T04:48:51.809Z,13.50
2023-05-14T04:51:54.849Z,13.60
2023-05-14T04:54:57.867Z,13.70
2023-05-14T04:58:02.384Z,13.90
2023-05-14T05:01:06.339Z,14.10
2023-05-14T05:04:09.602Z,14.30
2023-05-14T05:07:16.094Z,14.50
2023-05-14T05:10:19.068Z,14.80
2023-05-14T05:13:26.728Z,15.00
2023-05-14T05:16:29.910Z,15.00
2023-05-14T05:19:43.035Z,15.10
2023-05-14T05:22:47.478Z,14.90
2023-05-14T05:25:50.926Z,14.70
2023-05-14T05:28:55.348Z,14.60
2023-05-14T05:31:58.611Z,14.60
2023-05-14T05:35:05.029Z,14.70
2023-05-14T05:38:08.013Z,14.80
2023-05-14T05:41:11.054Z,15.00
2023-05-14T05:44:15.512Z,15.00
2023-05-14T05:47:18.825Z,15.10
2023-05-14T05:50:22.791Z,15.10
2023-05-14T05:53:26.023Z,15.20
2023-05-14T05:56:29.257Z,15.20
2023-05-14T05:59:33.652Z,15.30
2023-05-14T06:02:36.932Z,15.30
2023-05-14T06:05:40.157Z,15.50
2023-05-14T06:08:43.507Z,15.60
2023-05-14T06:11:48.876Z,15.80
2023-05-14T06:14:55.231Z,16.00
2023-05-14T06:17:58.510Z,16.10
2023-05-14T06:21:01.577Z,16.30
2023-05-14T06:24:04.820Z,16.40
2023-05-14T06:27:08.112Z,16.30
2023-05-14T06:30:14.135Z,16.30
2023-05-14T06:33:18.686Z,16.10
2023-05-14T06:36:23.057Z,16.10
2023-05-14T06:39:26.015Z,16.10
2023-05-14T06:42:31.816Z,16.20
2023-05-14T06:45:36.582Z,16.40
2023-05-14T06:48:39.955Z,16.60
2023-05-14T06:51:43.078Z,16.80
2023-05-14T06:54:47.617Z,16.90
2023-05-14T06:57:51.169Z,17.00
2023-05-14T07:00:55.589Z,17.20
2023-05-14T07:03:58.727Z,17.20
2023-05-14T07:07:05.704Z,17.30
2023-05-14T07:10:09.406Z,17.40
2023-05-14T07:13:12.646Z,17.40
2023-05-14T07:16:17.186Z,17.40
2023-05-14T07:19:20.278Z,17.50
2023-05-14T07:22:23.406Z,17.60
2023-05-14T07:25:26.539Z,17.70
2023-05-14T07:28:29.617Z,17.80
2023-05-14T07:31:34.010Z,17.80
2023-05-14T07:34:37.130Z,18.00
2023-05-14T07:37:40.486Z,18.20
2023-05-14T07:40:43.662Z,18.40
2023-05-14T07:43:48.222Z,18.60
2023-05-14T07:46:52.697Z,18.70
2023-05-14T07:49:56.616Z,18.70
2023-05-14T07:52:59.558Z,18.80
2023-05-14T07:56:02.593Z,19.00
2023-05-14T07:59:07.018Z,19.10
2023-05-14T08:02:12.838Z,19.40
2023-05-14T08:05:16.594Z,19.70
2023-05-14T08:08:19.724Z,20.00
2023-05-14T08:11:23.037Z,19.90
2023-05-14T08:14:26.152Z,19.90
2023-05-14T08:17:30.628Z,20.10
2023-05-14T08:20:33.851Z,20.30
2023-05-14T08:23:36.870Z,20.50
2023-05-14T08:26:39.990Z,20.60
2023-05-14T08:29:43.041Z,20.80
2023-05-14T08:32:47.505Z,20.80
2023-05-14T08:35:51.786Z,21.00
2023-05-14T08:38:54.916Z,21.10
2023-05-14T08:41:59.078Z,21.30
2023-05-14T08:45:03.641Z,21.20
2023-05-14T08:48:12.205Z,21.30
2023-05-14T08:51:15.933Z,21.50
2023-05-14T08:54:19.220Z,21.50
2023-05-14T08:57:24.727Z,21.60
2023-05-14T09:00:28.054Z,21.50
2023-05-14T09:03:33.265Z,21.50
2023-05-14T09:06:37.868Z,21.70
2023-05-14T09:09:45.007Z,22.00
2023-05-14T09:12:48.172Z,22.00
2023-05-14T09:15:51.729Z,22.10
2023-05-14T09:18:56.395Z,22.30
2023-05-14T09:22:00.195Z,22.30
2023-05-14T09:25:05.961Z,22.30
2023-05-14T09:28:13.632Z,22.50
2023-05-14T09:31:16.731Z,22.40
2023-05-14T09:34:27.963Z,22.30
2023-05-14T09:37:30.959Z,22.30
2023-05-14T09:40:34.056Z,22.10
2023-05-14T09:43:37.134Z,22.10
2023-05-14T09:46:40.136Z,22.10
2023-05-14T09:49:44.506Z,22.10
2023-05-14T09:52:47.606Z,22.10
2023-05-14T09:55:50.747Z,22.00
2023-05-14T09:58:55.015Z,22.00
2023-05-14T10:01:59.370Z,21.70
2023-05-14T10:05:06.993Z,21.50
2023-05-14T10:08:14.703Z,21.50
2023-05-14T10:11:22.286Z,21.40
2023-05-14T10:14:28.259Z,21.40
2023-05-14T10:17:35.833Z,21.30
2023-05-14T10:20:41.494Z,21.20
2023-05-14T10:23:44.860Z,21.30
2023-05-14T10:26:48.682Z,21.20
2023-05-14T10:29:55.374Z,21.10
2023-05-14T10:33:09.431Z,21.10
2023-05-14T10:36:14.215Z,21.10
2023-05-14T10:39:17.280Z,21.40
2023-05-14T10:42:23.389Z,21.60
2023-05-14T10:45:27.925Z,21.80
2023-05-14T10:48:31.128Z,21.90
2023-05-14T10:51:37.721Z,21.70
2023-05-14T10:54:41.083Z,21.60
2023-05-14T10:57:45.548Z,21.50
2023-05-14T11:00:50.032Z,21.40
2023-05-14T11:03:55.906Z,21.30
2023-05-14T11:07:04.265Z,21.30
2023-05-14T11:10:09.211Z,21.00
2023-05-14T11:13:13.251Z,20.80
2023-05-14T11:16:23.199Z,20.50
2023-05-14T11:19:27.235Z,20.40
2023-05-14T11:22:31.686Z,20.30
2023-05-14T11:25:34.717Z,20.30
2023-05-14T11:28:38.640Z,20.30
2023-05-14T11:31:42.347Z,20.20
2023-05-14T11:34:46.231Z,20.30
2023-05-14T11:37:53.208Z,20.30
2023-05-14T11:40:56.672Z,20.60
2023-05-14T11:44:00.150Z,20.80
2023-05-14T11:47:04.994Z,21.00
2023-05-14T11:50:09.796Z,21.10
2023-05-14T11:53:18.292Z,21.20
2023-05-14T11:56:22.735Z,21.10
2023-05-14T11:59:26.216Z,21.00
2023-05-14T12:02:30.384Z,20.90
2023-05-14T12:05:34.254Z,21.00
2023-05-14T12:08:38.823Z,21.00
2023-05-14T12:11:41.796Z,21.10
2023-05-14T12:14:45.549Z,21.30
2023-05-14T12:17:51.886Z,21.50
2023-05-14T12:20:55.284Z,21.80
2023-05-14T12:24:01.005Z,22.10
2023-05-14T12:27:04.536Z,22.50
2023-05-14T12:33:16.290Z,22.80
2023-05-14T12:36:21.820Z,22.80
2023-05-14T12:39:26.807Z,22.90
2023-05-14T12:42:29.796Z,22.70
2023-05-14T12:45:32.801Z,22.60
2023-05-14T12:48:35.879Z,22.50
2023-05-14T12:51:39.271Z,22.30
2023-05-14T12:54:44.131Z,22.30
2023-05-14T12:57:47.181Z,22.20
2023-05-14T13:00:50.175Z,22.20
2023-05-14T13:03:53.280Z,22.30
2023-05-14T13:06:56.412Z,22.30
2023-05-14T13:10:00.936Z,22.50
2023-05-14T13:13:03.879Z,22.30
2023-05-14T13:16:07.679Z,21.90
2023-05-14T13:19:10.851Z,21.60
2023-05-14T13:22:14.367Z,21.30
2023-05-14T13:25:18.896Z,21.10
2023-05-14T13:28:21.970Z,21.00
2023-05-14T13:31:25.029Z,20.90
2023-05-14T13:34:28.326Z,21.00
2023-05-14T13:37:31.334Z,21.00
2023-05-14T13:40:35.850Z,21.10
2023-05-14T13:43:38.996Z,21.10
2023-05-14T13:46:42.869Z,21.20
2023-05-14T13:49:45.930Z,21.30
2023-05-14T13:52:48.971Z,21.40
2023-05-14T13:55:56.445Z,21.30
2023-05-14T13:58:59.642Z,21.20
2023-05-14T14:02:03.563Z,21.10
2023-05-14T14:05:08.227Z,21.20
2023-05-14T14:08:22.563Z,21.10
2023-05-14T14:11:28.422Z,21.20
2023-05-14T14:14:31.473Z,21.30
2023-05-14T14:17:35.006Z,21.30
2023-05-14T14:20:37.949Z,21.40
2023-05-14T14:23:40.965Z,21.50
2023-05-14T14:26:45.248Z,21.60
2023-05-14T14:29:48.595Z,21.70
2023-05-14T14:32:52.308Z,21.70
2023-05-14T14:35:56.233Z,21.90
2023-05-14T14:38:59.176Z,21.90
2023-05-14T14:42:03.559Z,22.00
2023-05-14T14:45:07.541Z,22.20
2023-05-14T14:48:28.133Z,22.30
2023-05-14T14:51:31.355Z,22.40
2023-05-14T14:54:34.509Z,22.50
2023-05-14T14:57:38.870Z,22.40
2023-05-14T15:00:42.074Z,22.30
2023-05-14T15:03:45.683Z,22.40
2023-05-14T15:06:49.053Z,22.30
2023-05-14T15:09:52.268Z,22.20
2023-05-14T15:12:58.458Z,22.30
2023-05-14T15:16:02.063Z,22.30
2023-05-14T15:19:05.261Z,22.40
2023-05-14T15:22:08.432Z,22.40
2023-05-14T15:25:14.903Z,22.20
2023-05-14T15:28:19.553Z,22.10
2023-05-14T15:31:22.952Z,21.90
2023-05-14T15:34:26.393Z,21.80
2023-05-14T15:37:29.410Z,21.70
2023-05-14T15:40:33.165Z,21.50
2023-05-14T15:43:37.517Z,21.40
2023-05-14T15:46:40.468Z,21.30
2023-05-14T15:49:43.581Z,21.10
2023-05-14T15:52:46.853Z,21.10
2023-05-14T15:55:50.064Z,21.00
2023-05-14T15:58:54.505Z,20.90
2023-05-14T16:01:57.542Z,21.00
2023-05-14T16:05:00.656Z,21.00
2023-05-14T16:08:03.698Z,20.90
2023-05-14T16:11:07.704Z,20.90
2023-05-14T16:14:12.187Z,20.90
2023-05-14T16:17:15.375Z,20.90
2023-05-14T16:20:18.571Z,20.80
2023-05-14T16:23:21.816Z,20.80
2023-05-14T16:26:26.097Z,20.70
2023-05-14T16:29:31.204Z,20.60
2023-05-14T16:32:34.227Z,20.60
2023-05-14T16:35:37.345Z,20.50
2023-05-14T16:38:52.389Z,20.50
2023-05-14T16:42:03.645Z,20.50
2023-05-14T16:45:09.319Z,20.50
2023-05-14T16:48:12.361Z,20.50
2023-05-14T16:51:15.670Z,20.50
2023-05-14T16:54:18.632Z,20.40
2023-05-14T16:57:21.615Z,20.30
2023-05-14T17:00:26.413Z,20.30
2023-05-14T17:03:29.826Z,20.30
2023-05-14T17:06:32.806Z,20.30
2023-05-14T17:09:35.810Z,20.20
2023-05-14T17:12:38.845Z,20.10
2023-05-14T17:15:43.265Z,20.00
2023-05-14T17:18:46.955Z,20.00
2023-05-14T17:21:50.018Z,20.00
2023-05-14T17:24:53.036Z,19.90
2023-05-14T17:27:56.063Z,19.80
2023-05-14T17:31:00.395Z,19.70
2023-05-14T17:34:03.400Z,19.60
2023-05-14T17:37:06.514Z,19.50
2023-05-14T17:40:10.649Z,19.50
2023-05-14T17:43:13.947Z,19.40
2023-05-14T17:46:18.549Z,19.40
2023-05-14T17:49:21.641Z,19.30
2023-05-14T17:52:24.738Z,19.20
2023-05-14T17:55:28.178Z,19.10
2023-05-14T17:58:31.312Z,19.00
2023-05-14T18:01:35.867Z,18.90
2023-05-14T18:04:38.874Z,18.90
2023-05-14T18:07:42.036Z,18.70
2023-05-14T18:10:45.047Z,18.70
2023-05-14T18:13:48.085Z,18.60
2023-05-14T18:16:52.486Z,18.50
2023-05-14T18:19:55.552Z,18.40
2023-05-14T18:22:58.627Z,18.30
2023-05-14T18:26:01.604Z,18.20
2023-05-14T18:29:05.040Z,18.10
2023-05-14T18:32:09.763Z,18.10
2023-05-14T18:35:14.077Z,18.00
2023-05-14T18:38:17.849Z,18.00
2023-05-14T18:41:21.410Z,17.90
2023-05-14T18:44:26.987Z,17.80
2023-05-14T18:47:31.606Z,17.60
2023-05-14T18:50:34.985Z,17.50
2023-05-14T18:53:38.718Z,17.50
2023-05-14T18:56:46.816Z,17.40
2023-05-14T18:59:50.597Z,17.20
2023-05-14T19:02:55.097Z,17.20
2023-05-14T19:05:58.063Z,17.10
2023-05-14T19:09:01.709Z,17.00
2023-05-14T19:12:05.086Z,16.90
2023-05-14T19:15:08.959Z,16.80
2023-05-14T19:18:13.882Z,16.70
2023-05-14T19:21:17.137Z,16.60
2023-05-14T19:24:20.109Z,16.60
2023-05-14T19:27:24.366Z,16.50
2023-05-14T19:30:27.546Z,16.40
2023-05-14T19:33:32.241Z,16.30
2023-05-14T19:36:35.397Z,16.20
2023-05-14T19:39:38.546Z,16.10
2023-05-14T19:42:41.695Z,16.00
2023-05-14T19:45:45.872Z,16.00
2023-05-14T19:48:50.631Z,15.90
2023-05-14T19:51:53.662Z,15.80
2023-05-14T19:54:56.615Z,15.80
2023-05-14T19:57:59.720Z,15.60
2023-05-14T20:01:02.786Z,15.60
2023-05-14T20:04:07.334Z,15.60
2023-05-14T20:07:10.469Z,15.50
2023-05-14T20:10:14.138Z,15.40
2023-05-14T20:13:17.162Z,15.40
2023-05-14T20:16:20.341Z,15.30
2023-05-14T20:19:24.834Z,15.20
2023-05-14T20:22:29.422Z,15.20
2023-05-14T20:25:33.551Z,15.00
2023-05-14T20:28:37.232Z,15.00
2023-05-14T20:31:40.332Z,15.00
2023-05-14T20:34:44.891Z,14.90
2023-05-14T20:37:49.421Z,14.90
2023-05-14T20:40:52.499Z,14.90
2023-05-14T20:43:55.509Z,14.80
2023-05-14T20:46:58.530Z,14.80
2023-05-14T20:50:03.431Z,14.80
2023-05-14T20:53:06.546Z,14.70
2023-05-14T20:56:09.655Z,14.70
2023-05-14T20:59:15.399Z,14.70
2023-05-14T21:02:18.548Z,14.60
2023-05-14T21:05:23.565Z,14.60
2023-05-14T21:08:26.875Z,14.50
2023-05-14T21:11:30.288Z,14.50
2023-05-14T21:14:33.404Z,14.50
2023-05-14T21:17:36.490Z,14.40
2023-05-14T21:20:42.381Z,14.40
2023-05-14T21:23:45.962Z,14.40
2023-05-14T21:26:49.477Z,14.40
2023-05-14T21:29:53.354Z,14.40
2023-05-14T21:32:56.451Z,14.40
2023-05-14T21:36:00.801Z,14.30
2023-05-14T21:39:03.813Z,14.30
2023-05-14T21:42:07.463Z,14.20
2023-05-14T21:45:11.329Z,14.20
2023-05-14T21:48:14.467Z,14.10
2023-05-14T21:51:18.953Z,14.10
2023-05-14T21:54:22.267Z,14.00
2023-05-14T21:57:28.162Z,13.90
2023-05-14T22:00:31.773Z,13.90
2023-05-14T22:03:34.814Z,13.90
2023-05-14T22:06:39.209Z,13.70
2023-05-14T22:09:42.275Z,13.70
2023-05-14T22:12:46.290Z,13.60
2023-05-14T22:15:51.446Z,13.60
2023-05-14T22:19:01.337Z,13.50
2023-05-14T22:22:06.025Z,13.50
2023-05-14T22:25:09.936Z,13.50
2023-05-14T22:28:13.031Z,13.50
2023-05-14T22:31:16.043Z,13.50
2023-05-14T22:34:19.282Z,13.40
2023-05-14T22:37:23.651Z,13.30
2023-05-14T22:40:26.677Z,13.30
2023-05-14T22:43:29.689Z,13.30
2023-05-14T22:46:32.696Z,13.30
2023-05-14T22:49:35.740Z,13.20
2023-05-14T22:52:40.592Z,13.20
2023-05-14T22:55:43.629Z,13.10
2023-05-14T22:58:46.642Z,13.10
2023-05-14T23:01:49.692Z,13.10
2023-05-14T23:04:52.877Z,13.10
2023-05-14T23:07:57.281Z,13.10
2023-05-14T23:11:00.297Z,13.10
2023-05-14T23:14:03.328Z,13.00
2023-05-14T23:17:06.897Z,13.00
2023-05-14T23:20:12.600Z,12.90
2023-05-14T23:23:17.016Z,12.90
2023-05-14T23:26:20.048Z,12.90
2023-05-14T23:29:23.021Z,12.80
2023-05-14T23:32:26.108Z,12.80
2023-05-14T23:35:29.149Z,12.80
2023-05-14T23:38:34.055Z,12.70
2023-05-14T23:41:36.970Z,12.70
2023-05-14T23:44:39.997Z,12.70
2023-05-14T23:47:43.151Z,12.60
2023-05-14T23:50:46.361Z,12.50
2023-05-14T23:53:53.081Z,12.50
2023-05-14T23:56:56.120Z,12.50
2023-05-14T23:59:59.210Z,12.50
